首页
METAR-TAF:

METAR-TAF

机场 :

埃夫勒, 法国

纬度: 49-01N, 经度: 001-13E, 海拔: 141米

当前天气观测

该预报发布于37分钟前的05:00 UTC
风速4节,风向东转东南
温度 1°C
湿度 93%
气压 1005 hPa
能見度: 3600
阴天层高于300英尺
轻雾

METAR: LFOE 210500Z AUTO 11004KT 3600 BR OVC003 01/00 Q1005

时间: 06:37 (05:37 UTC)

预报

该预报发布于3小时和37分钟前的02:00 UTC
预报有效从21日的 03点(UTC)到 22日的 03点(UTC)
风速4节,风向东转东南
能見度: 3000
阴天层高于300英尺
轻雾
几率 30% :
短暂存在
从 21日的 03点(UTC)到 21日的 09点(UTC)
能見度: 1200
阴天层高于100英尺
碎片雾
成为
从 21日的 09点(UTC)到 21日的 11点(UTC)
风速10节,风向南转南东
能見度: 7000
成为
从 21日的 11点(UTC)到 21日的 13点(UTC)
多云层高于1200英尺
短暂存在
从 21日的 13点(UTC)到 21日的 15点(UTC)
散云层高于2000英尺
成为
从 21日的 15点(UTC)到 21日的 17点(UTC)
风速10节,风向南转南东,有时为20节阵风
能見度: 8000
多云层高于1000英尺
小雨
几率 30% :
短暂存在
从 21日的 18点(UTC)到 21日的 22点(UTC)
能見度: 4000
阴天层高于500英尺
小毛毛雨, 雨
成为
从 21日的 22点(UTC)到 21日的 23点(UTC)
能见度10公里或以上
几率 30% :
短暂存在
从 21日的 23点(UTC)到 22日的 03点(UTC)
阴天层高于400英尺

TAF: LFOE 210200Z 2103/2203 12004KT 3000 BR OVC003 PROB30 TEMPO 2103/2109 1200 BCFG OVC001 BECMG 2109/2111 15010KT 7000 NSW BECMG 2111/2113 BKN012 TEMPO 2113/2115 SCT020 BECMG 2115/2117 16010G20KT 8000 -RA BKN010 PROB30 TEMPO 2118/2122 4000 -DZRA OVC005 BECMG 2122/2123 9999 NSW PROB30 TEMPO 2123/2203 OVC004

超过4000个机场的气象观测和天气预报(METAR&TAF报告)。

可查询的气象台以黄色和红色小点在地图上表示。

将鼠标移到小点上方,可查看气象台名称。

然后点击查看天气观测和预报。

如需切换地图:点击带黑十字的绿色按钮放大地图;点击带横线的绿色按钮缩小地图;或者点击绿色箭头查看邻近地区的地图。


METAR-TAF: